Misión y Visión

La misión es proporcionar información fiable a la navegación aérea, contribuyendo a la seguridad, regularidad y eficiencia de la Navegación Aérea Internacional

La visión es contribuir sustancialmente al desarrollo de conocimientos y a la utilización de la meteorología aeronáutica a nivel nacional e internacional, mediante la innovación y la coparticipación con sectores sociales y productivos de la sociedad.

 
  Inicio
  Metar
  Taf
  Wintemp
  SIGMET
  Avisos
  Pronósticos
  Carpeta Meteorologica
  Imágenes Satelitales
  Climatología Aeronáutica
   
  ¿Quienes Somos?
  Contacto
  Eventos



DIRECCIONES PARA INFORMES NACIONALES E INTERNACIONALES
(Metar /Speci - TAF)



http://adds.aviationweather.gov/tafs/index.php

http://www.ogimet.com/metars.phtml



PRONÓSTICOS DE AERÓDROMO

Cuando sea necesario, el encabezamiento abreviado puede incluir un cuarto grupo consistente en tres letras para identificar los boletines demorados (RRA), corregidos(CCA) o enmendados (AAA). Los boletines adicionales demorados, corregidos o enmendados deben identificarse con las letras RRB, RRC, etc.; CCB, CCC,etc.;AAB, AAC,etc.



ESTACIONES DESCRIPCION
MPTO (M) 280300Z 29004KT 9000 FEW020 22/22 Q1012 NOSIG=RMK HZ ALQDS  
MPBO (M) 281900Z 03005KT 9999 FEW018 SCT090 Q1013  
MPCH (M) 281900Z 04010KT 9999 FEW030 Q1015  
MPSA (M) 281900Z 05006KT 9999 SCT018 35/18 Q1009  
MPCE (M) 281900Z 09006KT 9000 SCT025 34/22 Q1010 RMK HZ ALQDS  
MPPN (M)  
MPSM (M) 281900Z 15010KT 9999 FEW030 29/23 Q1009  
MPJE (M)  
MPPA (M) 281900Z 19007KT 9000 SCT020 33/23 Q1011 RMK HZ ALQDS  
MPMG (M) 281900Z 29011KT 260V320 9999 FEW020 34/21 Q1009 NOSIG RMK FU N  
MPDA (M) 281900Z 18012KT(E) 9000 SCT018 32/24 Q1009 RMK HZ ALQDS  
MPVR (M)  
MPWN (M)  
MPOA (M) 271700Z 36010KT(E) 9999 FEW025 SCT100 Q1015=  
MPMF (M)  
MPEJ (M)  


CLIMATICAS

MPTO

26-03-2017

PCPN

T° MAX

T° MIN

VIENTO MAX (KT)

HORA

VIENTO PREDOM (KT)

5.0

32.1

25.3

20010KT

1800Z

VRB 06KT

CLIMATICAS

MPMG

27-03-2017

PCPN

T° MAX

T° MIN

VIENTO MAX (KT)

HORA

VIENTO PREDOM (KT)

    0.0

34.0

24.1

32014KT

            2000Z                                     NW

 

 
 



























  Noticias AAC
  Directorio
  Contáctenos
  Historia
  Quejas y Sugerencias
  Etica y Transparencia

  Gestión SSP/SMS
  Seguridad Aérea
  Navegación Aérea
  Transporte Aéreo

  Tramites
  Áeronaves de Alquiler

  Meteorología
  I.S.F.P.A
  Notam
  Peligro Aviario
  AVSEC
  UPIA
  Permisos
 




DECLARACIÓN DE PRIVACIDAD